Time;durP1;ratioP1;P1;durP2;ratioP2;P2;SDS_P1;SDS_P2;PMS_P1;PMS_P2;Temp;Humidity;BMP_temperature;BMP_pressure;BME280_temperature;BME280_humidity;BME280_pressure;Samples;Min_cycle;Max_cycle;Signal;HPM_P1;HPM_P2
2022/02/11 00:02:18;;;;;;;2.53;1.52;;;9.10;78.40;;;;;;4986708;28;20033;-87
2022/02/11 00:07:19;;;;;;;2.10;1.50;;;9.00;78.50;;;;;;5018239;28;20043;-84
2022/02/11 00:09:45;;;;;;;2.60;1.80;;;9.00;78.40;;;;;;5012700;28;20033;-86
2022/02/11 00:12:11;;;;;;;1.80;1.67;;;9.00;78.40;;;;;;4982237;28;20033;-84
2022/02/11 00:14:49;;;;;;;3.38;1.85;;;8.90;78.40;;;;;;4948057;28;20045;-84
2022/02/11 00:17:15;;;;;;;2.78;1.70;;;8.90;78.40;;;;;;4963450;28;20030;-83
2022/02/11 00:19:41;;;;;;;2.67;1.85;;;8.90;78.40;;;;;;4974888;28;20045;-83
2022/02/11 00:22:07;;;;;;;3.17;1.73;;;8.90;78.40;;;;;;4996486;28;20038;-83
2022/02/11 00:24:33;;;;;;;2.47;1.70;;;8.90;78.50;;;;;;5029954;28;20034;-83
2022/02/11 00:30:26;;;;;;;2.13;1.92;;;8.90;78.40;;;;;;4956147;28;20041;-83
2022/02/11 00:32:51;;;;;;;1.80;1.58;;;8.80;79.00;;;;;;5017911;28;20084;-83
2022/02/11 00:35:33;;;;;;;2.25;1.60;;;8.80;78.30;;;;;;5004578;28;20062;-84
2022/02/11 00:38:03;;;;;;;1.88;1.58;;;8.80;78.40;;;;;;5020325;28;20076;-83
2022/02/11 00:44:02;;;;;;;2.53;1.77;;;8.80;78.40;;;;;;4999136;28;20026;-83
2022/02/11 01:02:18;;;;;;;2.83;1.70;;;8.60;78.40;;;;;;5029582;28;20038;-83
2022/02/11 01:04:45;;;;;;;2.97;1.50;;;8.60;78.40;;;;;;5007011;28;20385;-82
2022/02/11 01:07:10;;;;;;;1.77;1.55;;;8.50;78.40;;;;;;5012740;28;20475;-83
2022/02/11 01:09:39;;;;;;;1.50;1.40;;;8.50;78.50;;;;;;4996552;28;20034;-84
2022/02/11 01:12:06;;;;;;;2.45;1.50;;;8.50;78.50;;;;;;4995865;28;20041;-83
2022/02/11 01:14:38;;;;;;;2.10;1.60;;;8.50;78.50;;;;;;4998500;28;20029;-83
2022/02/11 01:25:31;;;;;;;1.63;1.50;;;8.50;78.50;;;;;;4995852;28;20128;-83
2022/02/11 01:39:52;;;;;;;2.42;1.50;;;8.40;78.50;;;;;;4998853;28;20113;-83
2022/02/11 01:44:42;;;;;;;2.10;1.67;;;8.30;78.50;;;;;;4997202;28;20057;-84
2022/02/11 02:17:19;;;;;;;1.52;1.30;;;8.20;78.60;;;;;;4994792;28;20022;-84
2022/02/11 02:30:00;;;;;;;2.60;1.40;;;8.10;78.60;;;;;;5003238;28;20030;-84
2022/02/11 02:32:59;;;;;;;2.00;1.38;;;8.10;78.70;;;;;;4986685;28;20046;-83
2022/02/11 02:35:14;;;;;;;3.80;1.80;;;8.10;78.60;;;;;;4987411;28;20116;-83
2022/02/11 03:59:27;;;;;;;2.03;1.20;;;8.00;79.10;;;;;;5002887;28;20029;-82
2022/02/11 04:55:39;;;;;;;1.80;1.20;;;8.00;79.20;;;;;;5001619;28;20116;-82
2022/02/11 05:00:50;;;;;;;3.40;1.50;;;8.00;79.20;;;;;;5002870;28;20060;-83
2022/02/11 05:03:15;;;;;;;2.92;1.35;;;8.00;79.20;;;;;;4995660;28;20042;-82
2022/02/11 05:05:50;;;;;;;3.97;1.60;;;8.00;79.20;;;;;;4982797;28;20052;-87
2022/02/11 05:08:25;;;;;;;3.97;1.48;;;8.00;79.20;;;;;;5003948;28;20542;-84
2022/02/11 05:10:53;;;;;;;2.60;1.30;;;8.00;79.20;;;;;;5021434;28;20064;-83
2022/02/11 05:13:19;;;;;;;2.85;1.50;;;8.00;79.10;;;;;;5013162;28;20026;-83
2022/02/11 05:15:45;;;;;;;3.92;1.77;;;8.00;79.20;;;;;;4989297;28;20030;-88
2022/02/11 05:18:12;;;;;;;2.85;1.35;;;8.00;79.20;;;;;;4997724;28;20041;-87
2022/02/11 05:20:38;;;;;;;2.28;1.35;;;8.00;79.20;;;;;;4990010;28;20042;-83
2022/02/11 05:23:08;;;;;;;4.32;1.20;;;8.00;79.20;;;;;;4994139;28;20117;-81
2022/02/11 05:25:37;;;;;;;2.65;1.70;;;8.00;79.20;;;;;;5011620;28;20045;-84
2022/02/11 05:28:06;;;;;;;3.38;1.35;;;8.00;79.20;;;;;;5002186;28;20054;-81
2022/02/11 05:30:34;;;;;;;3.17;1.30;;;8.00;79.10;;;;;;4998242;28;20034;-81
2022/02/11 05:33:00;;;;;;;2.63;1.33;;;8.00;79.10;;;;;;4977775;28;20133;-81
2022/02/11 05:35:26;;;;;;;3.53;1.70;;;8.00;79.10;;;;;;4990033;28;20038;-81
2022/02/11 05:37:52;;;;;;;2.00;1.40;;;8.00;79.10;;;;;;4961616;28;20025;-82
2022/02/11 05:40:19;;;;;;;1.88;1.27;;;8.00;79.10;;;;;;4990233;28;20036;-81
2022/02/11 05:42:44;;;;;;;2.70;1.40;;;8.00;79.10;;;;;;4996005;28;20022;-79
2022/02/11 05:45:11;;;;;;;3.08;1.40;;;8.00;79.10;;;;;;4993527;28;20489;-81
2022/02/11 05:47:36;;;;;;;2.10;1.10;;;8.00;79.10;;;;;;5004048;28;20533;-81
2022/02/11 05:50:03;;;;;;;3.17;1.42;;;8.00;79.10;;;;;;4980460;28;20100;-81
2022/02/11 05:52:30;;;;;;;2.45;1.40;;;8.00;79.10;;;;;;4993645;28;20049;-81
2022/02/11 05:54:55;;;;;;;3.25;1.40;;;8.10;79.20;;;;;;4967684;28;20481;-81
2022/02/11 05:57:21;;;;;;;1.13;1.10;;;8.00;79.10;;;;;;4995542;28;20118;-80
2022/02/11 05:59:47;;;;;;;3.20;1.35;;;8.00;79.10;;;;;;4990396;28;20025;-83
2022/02/11 06:02:13;;;;;;;2.42;1.23;;;8.00;79.10;;;;;;4989210;28;20029;-81
2022/02/11 06:04:38;;;;;;;2.85;1.27;;;8.00;79.10;;;;;;4989860;28;20040;-82
2022/02/11 06:07:04;;;;;;;3.42;1.60;;;8.00;79.10;;;;;;4983650;28;20433;-81
2022/02/11 06:09:30;;;;;;;4.28;1.70;;;8.00;79.10;;;;;;4983155;28;20070;-80
2022/02/11 06:11:56;;;;;;;3.78;1.67;;;8.00;79.10;;;;;;5001354;28;20672;-79
2022/02/11 06:14:21;;;;;;;3.60;1.30;;;8.00;79.10;;;;;;5003392;28;20026;-84
2022/02/11 06:16:47;;;;;;;2.80;1.40;;;8.00;79.10;;;;;;4996528;28;20046;-83
2022/02/11 06:19:13;;;;;;;2.25;1.40;;;8.00;79.10;;;;;;4975974;28;20101;-82
2022/02/11 06:21:38;;;;;;;2.50;1.50;;;8.00;79.00;;;;;;4999268;28;20030;-78
2022/02/11 06:24:04;;;;;;;3.35;1.60;;;8.00;79.10;;;;;;4998345;28;20478;-78
2022/02/11 06:26:30;;;;;;;3.60;1.50;;;8.00;79.00;;;;;;4961200;28;20059;-85
2022/02/11 06:28:56;;;;;;;1.92;1.30;;;8.00;79.00;;;;;;4971128;28;20034;-80
2022/02/11 06:31:22;;;;;;;4.35;1.42;;;8.00;79.00;;;;;;4974681;28;20032;-83
2022/02/11 06:33:48;;;;;;;4.15;1.52;;;8.00;79.00;;;;;;5004042;28;20037;-85
2022/02/11 06:36:14;;;;;;;1.35;1.20;;;8.00;79.00;;;;;;4971846;28;20447;-79
2022/02/11 06:38:40;;;;;;;2.05;1.10;;;8.00;79.00;;;;;;5001496;28;20058;-80
2022/02/11 06:41:06;;;;;;;3.30;1.48;;;8.00;78.90;;;;;;4997520;28;20087;-79
2022/02/11 06:43:32;;;;;;;3.33;1.40;;;8.00;78.90;;;;;;4995807;28;20037;-81
2022/02/11 06:45:58;;;;;;;1.70;1.13;;;7.90;78.90;;;;;;5008583;28;20034;-83
2022/02/11 06:48:25;;;;;;;2.63;1.50;;;8.00;79.00;;;;;;4999888;28;20406;-83
2022/02/11 06:50:51;;;;;;;2.35;1.40;;;8.00;78.90;;;;;;5012099;28;20462;-85
2022/02/11 06:53:17;;;;;;;1.50;1.20;;;7.90;78.90;;;;;;4983572;28;20051;-80
2022/02/11 06:55:43;;;;;;;3.20;1.50;;;7.90;78.80;;;;;;4993566;28;20038;-80
2022/02/11 06:58:10;;;;;;;1.50;1.20;;;7.90;78.80;;;;;;5000172;28;20846;-80
2022/02/11 07:00:40;;;;;;;1.30;1.15;;;7.90;78.80;;;;;;5006223;28;20050;-79
2022/02/11 07:03:06;;;;;;;3.40;1.50;;;7.90;78.80;;;;;;4993195;28;20092;-79
2022/02/11 07:05:34;;;;;;;2.00;1.20;;;7.90;79.50;;;;;;4989880;28;20482;-80
2022/02/11 07:08:00;;;;;;;3.05;1.30;;;7.90;78.90;;;;;;5011519;28;20026;-79
2022/02/11 07:10:26;;;;;;;3.35;1.48;;;7.80;78.80;;;;;;4982342;28;20036;-80
2022/02/11 07:12:51;;;;;;;2.03;1.20;;;7.90;78.80;;;;;;4984232;28;20033;-80
2022/02/11 07:15:17;;;;;;;3.75;1.58;;;7.80;78.80;;;;;;5008396;28;20040;-79
2022/02/11 07:17:43;;;;;;;1.42;1.20;;;7.80;78.80;;;;;;5016662;28;20802;-79
2022/02/11 07:20:11;;;;;;;2.88;1.63;;;7.80;78.80;;;;;;4974315;28;20040;-80
2022/02/11 07:22:38;;;;;;;2.95;1.45;;;7.80;78.80;;;;;;4993492;28;20033;-80
2022/02/11 07:25:07;;;;;;;2.20;1.50;;;7.80;78.80;;;;;;5016668;28;20033;-79
2022/02/11 07:27:35;;;;;;;2.05;1.27;;;7.80;78.80;;;;;;5026810;28;20469;-80
2022/02/11 07:30:01;;;;;;;2.92;1.30;;;7.80;78.80;;;;;;4982334;28;20034;-80
2022/02/11 07:32:28;;;;;;;3.20;1.60;;;7.80;78.80;;;;;;5007816;28;20443;-80
2022/02/11 07:34:55;;;;;;;4.35;1.77;;;7.70;78.70;;;;;;5000899;28;20041;-83
2022/02/11 07:37:22;;;;;;;2.95;1.35;;;7.80;78.80;;;;;;4996805;28;20041;-79
2022/02/11 07:39:48;;;;;;;1.88;1.35;;;7.70;78.70;;;;;;5005302;28;20497;-79
2022/02/11 07:42:14;;;;;;;3.38;1.92;;;7.70;78.70;;;;;;4994845;28;20033;-83
2022/02/11 07:44:40;;;;;;;2.35;1.33;;;7.70;78.70;;;;;;4988313;28;20578;-83
2022/02/11 07:47:06;;;;;;;2.05;1.30;;;7.70;78.70;;;;;;4985314;28;20166;-79
2022/02/11 07:49:34;;;;;;;1.73;1.20;;;7.70;78.70;;;;;;5012518;28;20144;-79
2022/02/11 07:51:59;;;;;;;2.05;1.40;;;7.70;78.70;;;;;;5001294;28;20061;-82
2022/02/11 07:54:27;;;;;;;2.03;1.20;;;7.70;78.70;;;;;;4997246;28;20056;-79
2022/02/11 07:56:53;;;;;;;3.83;1.38;;;7.60;78.70;;;;;;5000190;28;20034;-81
2022/02/11 07:59:19;;;;;;;3.22;1.30;;;7.60;78.70;;;;;;5010207;28;20025;-80
2022/02/11 08:01:45;;;;;;;3.53;1.85;;;7.60;78.70;;;;;;4995521;28;20108;-82
2022/02/11 08:04:11;;;;;;;3.72;1.60;;;7.60;78.70;;;;;;5008056;28;20751;-80
2022/02/11 08:06:37;;;;;;;3.22;1.50;;;7.60;78.70;;;;;;4992034;28;20033;-80
2022/02/11 08:09:03;;;;;;;2.22;1.33;;;7.60;78.70;;;;;;4991466;28;20462;-80
2022/02/11 08:11:28;;;;;;;4.05;1.50;;;7.60;78.70;;;;;;5012576;28;20128;-80
2022/02/11 08:13:54;;;;;;;3.30;1.58;;;7.60;78.70;;;;;;4991094;28;20455;-80
2022/02/11 08:16:20;;;;;;;2.75;1.65;;;7.60;78.70;;;;;;4979774;28;20036;-80
2022/02/11 08:18:46;;;;;;;2.72;1.30;;;7.60;78.70;;;;;;5005332;28;20466;-80
2022/02/11 08:21:12;;;;;;;2.42;1.33;;;7.60;78.70;;;;;;5001327;28;20034;-81
2022/02/11 08:23:38;;;;;;;2.35;1.42;;;7.60;78.70;;;;;;4988712;28;20390;-81
2022/02/11 08:26:04;;;;;;;1.60;1.20;;;7.60;78.70;;;;;;5001404;28;20026;-83
2022/02/11 08:28:31;;;;;;;6.28;2.00;;;7.60;78.70;;;;;;4994470;28;20124;-77
2022/02/11 08:31:00;;;;;;;4.03;1.58;;;7.60;78.70;;;;;;5003105;28;20053;-93
2022/02/11 08:33:26;;;;;;;2.42;1.60;;;7.60;78.80;;;;;;4994262;28;20039;-83
2022/02/11 08:35:54;;;;;;;3.78;1.55;;;7.60;78.70;;;;;;4990869;28;20124;-85
2022/02/11 08:38:21;;;;;;;3.92;1.60;;;7.50;78.70;;;;;;4964336;28;20520;-83
2022/02/11 08:40:51;;;;;;;2.65;1.27;;;7.50;78.70;;;;;;4983708;28;20041;-82
2022/02/11 08:43:18;;;;;;;4.53;1.95;;;7.50;78.70;;;;;;5001173;28;20033;-82
2022/02/11 08:45:44;;;;;;;3.25;1.77;;;7.50;78.70;;;;;;5027241;28;20033;-83
2022/02/11 08:48:14;;;;;;;2.00;1.23;;;7.60;78.80;;;;;;4985844;28;20061;-86
2022/02/11 08:50:41;;;;;;;2.92;1.60;;;7.50;78.80;;;;;;5003593;28;20021;-82
2022/02/11 08:53:09;;;;;;;3.85;1.48;;;7.50;78.80;;;;;;5007376;28;20554;-82
2022/02/11 08:55:36;;;;;;;2.60;1.42;;;7.50;78.80;;;;;;5009462;28;20076;-82
2022/02/11 08:58:05;;;;;;;3.83;1.70;;;7.50;78.80;;;;;;4994038;28;20037;-81
2022/02/11 09:00:31;;;;;;;3.83;1.60;;;7.50;78.80;;;;;;5026751;28;20086;-82
2022/02/11 09:02:58;;;;;;;3.50;1.70;;;7.50;78.80;;;;;;4996057;28;20025;-81
2022/02/11 09:05:26;;;;;;;5.05;1.67;;;7.60;78.90;;;;;;4992104;28;20459;-85
2022/02/11 09:07:57;;;;;;;3.35;1.60;;;7.60;78.90;;;;;;4997923;28;20036;-83
2022/02/11 09:10:26;;;;;;;2.40;1.40;;;7.50;78.80;;;;;;5005340;28;20049;-82
2022/02/11 09:12:52;;;;;;;3.78;1.60;;;7.50;78.80;;;;;;5003278;28;20391;-82
2022/02/11 09:15:19;;;;;;;2.63;1.45;;;7.60;78.90;;;;;;5003327;28;20298;-80
2022/02/11 09:17:45;;;;;;;2.38;1.30;;;7.60;78.90;;;;;;4974322;28;20442;-82
2022/02/11 09:20:12;;;;;;;3.72;1.58;;;7.60;78.90;;;;;;4965331;28;20066;-82
2022/02/11 09:22:38;;;;;;;5.75;1.83;;;7.60;78.90;;;;;;4998229;28;20062;-83
2022/02/11 09:25:04;;;;;;;4.25;1.90;;;7.60;78.90;;;;;;4996446;28;20038;-82
2022/02/11 09:27:30;;;;;;;4.97;1.85;;;7.60;78.90;;;;;;4993301;28;20568;-82
2022/02/11 09:29:56;;;;;;;5.53;1.85;;;7.60;78.90;;;;;;4992280;28;20025;-87
2022/02/11 09:32:22;;;;;;;4.75;1.63;;;7.60;78.90;;;;;;4969089;28;20036;-82
2022/02/11 09:34:47;;;;;;;4.53;2.15;;;7.60;78.90;;;;;;5003188;28;20026;-84
2022/02/11 09:37:13;;;;;;;3.20;1.60;;;7.70;79.50;;;;;;4996275;28;20034;-83
2022/02/11 09:39:39;;;;;;;4.18;1.85;;;7.70;78.90;;;;;;5002615;28;20452;-82
2022/02/11 09:42:05;;;;;;;7.43;2.03;;;7.70;78.90;;;;;;4986553;28;20026;-83
2022/02/11 09:44:32;;;;;;;5.72;1.77;;;7.70;78.90;;;;;;4996592;28;20025;-82
2022/02/11 09:46:59;;;;;;;3.05;1.67;;;7.70;78.90;;;;;;5010921;28;20042;-82
2022/02/11 09:49:25;;;;;;;4.25;1.52;;;7.70;78.90;;;;;;5002903;28;20021;-82
2022/02/11 09:51:53;;;;;;;4.60;1.70;;;7.80;78.90;;;;;;4985653;28;20392;-82
2022/02/11 09:54:21;;;;;;;3.67;1.75;;;7.80;78.90;;;;;;4975627;28;20026;-82
2022/02/11 09:56:49;;;;;;;4.32;1.77;;;7.80;78.90;;;;;;5028969;28;20080;-81
2022/02/11 09:59:16;;;;;;;4.30;1.80;;;7.80;78.90;;;;;;5005749;28;20018;-81
2022/02/11 10:01:43;;;;;;;4.32;1.50;;;7.80;78.80;;;;;;5002919;28;20030;-82
2022/02/11 10:04:18;;;;;;;4.32;1.90;;;7.90;78.80;;;;;;4989674;28;20026;-84
2022/02/11 10:06:48;;;;;;;;;;;7.90;78.80;;;;;;4989813;28;20065;-82
2022/02/11 10:09:15;;;;;;;3.20;1.30;;;7.90;78.60;;;;;;4997839;28;20011;-81
2022/02/11 10:11:45;;;;;;;5.00;1.90;;;7.90;78.50;;;;;;5004025;28;20036;-82
2022/02/11 10:14:22;;;;;;;4.07;1.67;;;7.90;78.60;;;;;;4996313;28;20124;-83
2022/02/11 10:17:14;;;;;;;3.40;1.50;;;7.90;78.70;;;;;;5002310;28;20033;-83
2022/02/11 10:19:49;;;;;;;3.03;1.67;;;7.90;78.70;;;;;;5006372;28;20336;-83
2022/02/11 10:22:21;;;;;;;4.32;1.45;;;8.00;78.50;;;;;;4984861;28;20040;-81
2022/02/11 10:24:49;;;;;;;2.60;1.52;;;8.00;78.50;;;;;;4990901;28;20022;-83
2022/02/11 10:27:18;;;;;;;3.58;1.70;;;8.00;78.50;;;;;;5002289;28;20108;-82
2022/02/11 10:29:45;;;;;;;3.78;1.52;;;8.00;78.50;;;;;;5002387;28;20441;-82
2022/02/11 10:32:11;;;;;;;3.75;1.55;;;8.10;78.40;;;;;;5002471;28;20041;-82
2022/02/11 10:34:39;;;;;;;4.80;1.58;;;8.10;78.40;;;;;;4992145;28;20045;-82
2022/02/11 10:37:09;;;;;;;4.32;1.50;;;8.10;78.30;;;;;;4988598;28;20498;-81
2022/02/11 10:39:37;;;;;;;3.85;1.60;;;8.10;78.30;;;;;;5004650;28;20041;-82
2022/02/11 10:42:08;;;;;;;3.50;1.98;;;8.20;78.20;;;;;;4989023;28;20065;-83
2022/02/11 10:44:43;;;;;;;3.35;1.38;;;8.20;78.20;;;;;;4994231;28;20034;-82
2022/02/11 10:47:15;;;;;;;5.03;1.60;;;8.20;78.10;;;;;;4996281;28;20036;-83
2022/02/11 10:49:44;;;;;;;3.75;1.70;;;8.30;78.10;;;;;;5008359;28;20026;-84
2022/02/11 10:52:17;;;;;;;4.75;2.22;;;8.30;78.00;;;;;;5000139;28;20014;-84
2022/02/11 10:55:05;;;;;;;3.20;1.40;;;8.30;78.10;;;;;;5013259;28;20041;-83
2022/02/11 10:57:31;;;;;;;2.95;1.40;;;8.30;78.00;;;;;;5026216;28;20045;-83
2022/02/11 11:00:00;;;;;;;3.17;1.33;;;8.40;78.00;;;;;;5009425;28;20030;-83
2022/02/11 11:02:26;;;;;;;3.65;1.58;;;8.40;78.60;;;;;;4996905;28;20037;-82
2022/02/11 11:04:54;;;;;;;3.50;1.35;;;8.40;77.90;;;;;;4990753;28;20026;-84
2022/02/11 11:07:28;;;;;;;1.90;1.23;;;8.40;77.90;;;;;;5013714;28;20436;-85
2022/02/11 11:09:55;;;;;;;4.15;1.35;;;8.50;78.00;;;;;;5023668;28;20030;-85
2022/02/11 11:12:27;;;;;;;3.20;1.38;;;8.50;77.90;;;;;;5004332;28;20490;-80
2022/02/11 11:14:59;;;;;;;2.63;1.25;;;8.50;77.80;;;;;;5014203;28;20029;-82
2022/02/11 11:17:26;;;;;;;3.33;1.50;;;8.50;77.80;;;;;;5004821;28;20030;-82
2022/02/11 11:19:55;;;;;;;3.47;1.40;;;8.60;77.80;;;;;;4989523;28;20525;-80
2022/02/11 11:22:32;;;;;;;2.80;1.30;;;8.60;77.80;;;;;;5022416;28;20026;-80
2022/02/11 11:25:05;;;;;;;4.50;1.85;;;8.60;77.80;;;;;;4991100;28;20049;-81
2022/02/11 11:27:42;;;;;;;4.00;1.55;;;8.60;77.70;;;;;;5025429;28;20088;-81
2022/02/11 11:30:29;;;;;;;3.13;1.50;;;8.70;77.70;;;;;;4995339;28;20172;-80
2022/02/11 11:33:07;;;;;;;4.85;1.40;;;8.70;77.70;;;;;;4992837;28;20030;-87
2022/02/11 11:35:40;;;;;;;1.75;1.17;;;8.80;77.70;;;;;;5000705;28;20044;-81
2022/02/11 11:38:18;;;;;;;2.38;1.30;;;8.70;77.50;;;;;;4989183;28;20104;-87
2022/02/11 11:41:08;;;;;;;3.67;1.40;;;8.70;77.40;;;;;;4998065;28;20045;-87
2022/02/11 11:43:37;;;;;;;2.80;1.30;;;8.80;77.50;;;;;;4995849;28;20041;-88
2022/02/11 11:46:15;;;;;;;4.38;1.50;;;8.80;77.30;;;;;;5011922;28;20026;-83
2022/02/11 11:48:56;;;;;;;3.78;1.67;;;8.80;77.40;;;;;;4988841;28;20037;-82
2022/02/11 11:51:24;;;;;;;2.50;1.33;;;8.90;77.50;;;;;;4997852;28;20096;-80
2022/02/11 11:53:50;;;;;;;3.28;1.30;;;8.90;77.30;;;;;;4983292;28;20045;-81
2022/02/11 11:56:36;;;;;;;3.67;1.48;;;8.90;77.40;;;;;;5007319;28;20355;-82
2022/02/11 11:59:17;;;;;;;3.95;1.67;;;9.00;77.50;;;;;;5022426;28;20554;-82
2022/02/11 12:01:55;;;;;;;2.47;1.27;;;9.00;77.40;;;;;;5007045;28;20022;-83
2022/02/11 12:04:29;;;;;;;3.25;1.60;;;9.00;77.40;;;;;;5004395;28;20030;-82
2022/02/11 12:07:00;;;;;;;2.22;1.27;;;9.00;77.30;;;;;;5021124;28;20034;-82
2022/02/11 12:09:27;;;;;;;1.80;1.20;;;9.10;77.30;;;;;;5020616;28;20090;-79
2022/02/11 12:11:57;;;;;;;1.98;1.20;;;9.10;77.30;;;;;;5005375;28;20069;-82
2022/02/11 12:14:23;;;;;;;2.78;1.20;;;9.10;77.30;;;;;;5004914;28;20030;-82
2022/02/11 12:16:49;;;;;;;3.72;1.48;;;9.20;77.20;;;;;;5014150;28;20064;-87
2022/02/11 12:19:15;;;;;;;2.38;1.30;;;9.20;77.20;;;;;;4997426;28;20454;-86
2022/02/11 12:21:41;;;;;;;4.32;1.40;;;9.20;77.10;;;;;;4989513;28;20363;-85
2022/02/11 12:29:38;;;;;;;3.63;1.40;;;9.30;77.00;;;;;;5006055;28;20053;-84
2022/02/11 12:32:05;;;;;;;2.88;1.40;;;9.40;76.80;;;;;;4993946;28;20042;-86
2022/02/11 12:34:31;;;;;;;2.17;1.25;;;9.40;76.80;;;;;;4993239;28;20418;-85
2022/02/11 12:37:08;;;;;;;2.38;1.30;;;9.40;76.70;;;;;;4983139;28;20107;-86
2022/02/11 12:39:34;;;;;;;2.13;1.20;;;9.50;76.80;;;;;;4984269;28;20069;-83
2022/02/11 12:42:00;;;;;;;3.35;1.50;;;9.50;76.60;;;;;;5010453;28;20535;-84
2022/02/11 12:44:29;;;;;;;3.50;1.45;;;9.50;76.50;;;;;;4998837;28;20034;-84
2022/02/11 12:46:56;;;;;;;3.92;1.50;;;9.60;76.40;;;;;;5002447;28;20033;-85
2022/02/11 12:49:22;;;;;;;3.22;1.40;;;9.60;76.40;;;;;;5010931;28;20029;-85
2022/02/11 12:51:54;;;;;;;3.28;1.40;;;9.70;76.40;;;;;;4995892;28;20017;-84
2022/02/11 12:54:20;;;;;;;2.17;1.10;;;9.70;76.30;;;;;;4985421;28;20030;-84
2022/02/11 12:56:47;;;;;;;3.58;1.50;;;9.70;76.20;;;;;;4990882;28;20068;-85
2022/02/11 12:59:13;;;;;;;2.67;1.40;;;9.80;76.20;;;;;;4967781;28;20033;-85
2022/02/11 13:01:39;;;;;;;2.47;1.15;;;9.80;76.00;;;;;;4991945;28;20026;-85
2022/02/11 13:04:05;;;;;;;2.03;1.20;;;9.80;76.00;;;;;;4998810;28;20040;-84
2022/02/11 13:06:35;;;;;;;2.47;1.30;;;9.80;75.90;;;;;;4972737;28;20018;-85
2022/02/11 13:09:01;;;;;;;2.75;1.40;;;9.90;75.90;;;;;;5005281;28;20022;-83
2022/02/11 13:11:27;;;;;;;3.00;1.35;;;9.90;75.80;;;;;;4999792;28;20026;-85
2022/02/11 13:14:05;;;;;;;2.85;1.30;;;9.90;75.70;;;;;;5005463;28;20383;-85
2022/02/11 13:16:35;;;;;;;2.63;1.20;;;10.00;75.80;;;;;;5000755;28;20474;-84
2022/02/11 13:19:17;;;;;;;3.08;1.40;;;10.00;75.70;;;;;;4979269;28;20026;-87
2022/02/11 13:21:44;;;;;;;5.32;1.50;;;9.90;75.60;;;;;;4998799;28;20033;-84
2022/02/11 13:24:10;;;;;;;2.42;1.25;;;10.00;75.60;;;;;;5003957;28;20033;-83
2022/02/11 13:26:37;;;;;;;2.50;1.30;;;10.00;75.60;;;;;;4986964;28;20053;-83
2022/02/11 13:29:13;;;;;;;4.85;1.50;;;10.00;75.60;;;;;;5003039;28;20474;-84
2022/02/11 13:31:49;;;;;;;2.45;1.27;;;10.10;75.70;;;;;;4994334;28;20204;-83
2022/02/11 13:34:15;;;;;;;1.90;1.10;;;10.10;75.60;;;;;;4995357;28;20045;-84
2022/02/11 13:36:47;;;;;;;3.10;1.20;;;10.10;75.50;;;;;;5012657;28;20029;-83
2022/02/11 13:39:32;;;;;;;2.60;1.13;;;10.10;75.50;;;;;;5022317;28;20034;-84
2022/02/11 13:42:11;;;;;;;3.13;1.38;;;10.10;75.60;;;;;;4995326;28;20479;-84
2022/02/11 13:44:37;;;;;;;1.40;1.08;;;10.10;75.50;;;;;;4988388;28;20033;-84
2022/02/11 13:47:03;;;;;;;2.00;1.20;;;10.20;75.50;;;;;;4987266;28;20038;-82
2022/02/11 13:49:38;;;;;;;2.10;1.30;;;10.20;75.50;;;;;;4972811;28;20470;-85
2022/02/11 13:54:56;;;;;;;;;;;10.20;75.50;;;;;;5017762;28;20398;-84
2022/02/11 13:57:23;;;;;;;1.73;1.10;;;10.20;75.40;;;;;;5005205;28;19940;-84
2022/02/11 13:59:49;;;;;;;3.60;1.83;;;10.20;75.40;;;;;;5020643;28;20033;-88
2022/02/11 14:02:20;;;;;;;2.50;1.30;;;10.20;75.40;;;;;;4993900;28;20067;-83
2022/02/11 14:04:46;;;;;;;3.55;1.73;;;10.20;75.40;;;;;;5016565;28;20033;-82
2022/02/11 14:07:15;;;;;;;1.13;1.02;;;10.20;75.40;;;;;;5002486;28;20026;-84
2022/02/11 14:09:42;;;;;;;1.77;1.05;;;10.30;75.40;;;;;;4974817;28;20041;-81
2022/02/11 14:12:27;;;;;;;2.63;1.40;;;10.30;75.40;;;;;;4985043;28;20034;-82
2022/02/11 14:15:05;;;;;;;2.33;1.20;;;10.30;75.40;;;;;;5006250;28;20041;-82
2022/02/11 14:17:33;;;;;;;2.25;0.85;;;10.30;75.20;;;;;;5008437;28;20493;-86
2022/02/11 14:19:58;;;;;;;3.30;1.85;;;10.30;75.20;;;;;;5007177;28;20030;-84
2022/02/11 14:22:24;;;;;;;2.40;1.30;;;10.30;75.10;;;;;;4994351;28;20034;-83
2022/02/11 14:24:50;;;;;;;3.05;1.40;;;10.40;75.10;;;;;;4972132;28;20083;-84
2022/02/11 14:27:16;;;;;;;1.73;1.10;;;10.40;75.10;;;;;;5005974;28;20100;-83
2022/02/11 14:29:43;;;;;;;2.88;1.25;;;10.40;75.10;;;;;;5012912;28;20037;-84
2022/02/11 14:32:09;;;;;;;1.60;1.20;;;10.40;75.10;;;;;;5001068;28;20050;-83
2022/02/11 14:34:35;;;;;;;2.95;1.15;;;10.40;75.10;;;;;;5008831;28;20088;-85
2022/02/11 14:37:01;;;;;;;3.35;1.45;;;10.40;75.20;;;;;;5001305;28;20065;-83
2022/02/11 14:39:27;;;;;;;3.53;1.30;;;10.40;75.10;;;;;;5006525;28;20108;-84
2022/02/11 14:41:57;;;;;;;3.30;1.38;;;10.40;75.10;;;;;;5010522;28;20429;-82
2022/02/11 14:44:29;;;;;;;4.40;1.50;;;10.40;75.20;;;;;;5000474;28;20530;-80
2022/02/11 14:47:01;;;;;;;3.70;1.33;;;10.50;75.20;;;;;;4998176;28;20041;-82
2022/02/11 14:49:28;;;;;;;2.03;1.23;;;10.50;75.30;;;;;;5025532;28;20033;-83
2022/02/11 14:52:06;;;;;;;3.10;1.73;;;10.50;75.30;;;;;;5008612;28;20029;-81
2022/02/11 14:54:35;;;;;;;2.38;1.30;;;10.50;75.40;;;;;;4998921;28;20034;-80
2022/02/11 14:57:01;;;;;;;3.38;1.48;;;10.50;75.40;;;;;;5007303;28;20034;-82
2022/02/11 14:59:28;;;;;;;2.45;1.05;;;10.50;75.40;;;;;;5006560;28;20466;-81
2022/02/11 15:01:55;;;;;;;5.25;1.48;;;10.50;75.40;;;;;;5007997;28;20041;-82
2022/02/11 15:04:43;;;;;;;3.25;1.20;;;10.50;75.50;;;;;;4998305;28;20030;-80
2022/02/11 15:07:09;;;;;;;2.15;1.13;;;10.50;75.50;;;;;;5022445;28;20026;-81
2022/02/11 15:09:34;;;;;;;2.92;1.30;;;10.50;75.40;;;;;;4996951;28;20026;-80
2022/02/11 15:12:00;;;;;;;2.90;1.30;;;10.60;75.50;;;;;;4972469;28;20064;-80
2022/02/11 15:14:28;;;;;;;2.20;1.38;;;10.50;75.40;;;;;;4988583;28;20033;-86
2022/02/11 15:16:54;;;;;;;1.92;1.20;;;10.50;75.40;;;;;;4996827;28;20038;-81
2022/02/11 15:19:20;;;;;;;1.95;1.30;;;10.50;75.40;;;;;;4995044;28;20378;-81
2022/02/11 15:21:46;;;;;;;1.58;1.02;;;10.60;75.40;;;;;;4972506;28;20103;-86
2022/02/11 15:24:12;;;;;;;3.13;1.30;;;10.50;75.30;;;;;;4994815;28;20112;-81
2022/02/11 15:26:39;;;;;;;2.25;1.27;;;10.50;75.20;;;;;;5011787;28;20083;-81
2022/02/11 15:29:05;;;;;;;2.00;1.10;;;10.60;75.10;;;;;;4998576;28;20042;-82
2022/02/11 15:31:31;;;;;;;3.30;1.35;;;10.60;75.10;;;;;;4975738;28;20033;-79
2022/02/11 15:33:56;;;;;;;1.98;1.33;;;10.50;75.00;;;;;;4996687;28;20026;-84
2022/02/11 15:36:22;;;;;;;1.58;1.10;;;10.60;75.00;;;;;;4993020;28;20026;-80
2022/02/11 15:38:48;;;;;;;2.35;1.40;;;10.50;75.00;;;;;;5014547;28;20034;-79
2022/02/11 15:41:14;;;;;;;3.40;1.17;;;10.50;75.00;;;;;;4996163;28;20506;-80
2022/02/11 15:43:40;;;;;;;2.17;1.35;;;10.60;75.10;;;;;;4989870;28;20061;-81
2022/02/11 15:46:08;;;;;;;1.70;1.20;;;10.60;75.20;;;;;;5004599;28;20107;-83
2022/02/11 15:48:40;;;;;;;2.58;1.10;;;10.60;75.90;;;;;;4991324;28;20604;-81
2022/02/11 15:51:10;;;;;;;1.73;1.05;;;10.60;75.30;;;;;;4983894;28;20045;-81
2022/02/11 15:53:37;;;;;;;1.95;1.10;;;10.60;75.40;;;;;;4999095;28;20083;-83
2022/02/11 15:56:03;;;;;;;3.40;1.10;;;10.60;75.30;;;;;;5007790;28;20022;-82
2022/02/11 15:58:29;;;;;;;2.25;1.20;;;10.60;75.40;;;;;;4996140;28;20053;-82
2022/02/11 16:00:55;;;;;;;1.02;0.93;;;10.60;75.40;;;;;;4963986;28;20067;-81
2022/02/11 16:03:23;;;;;;;2.33;1.27;;;10.60;75.40;;;;;;4994035;28;20029;-79
2022/02/11 16:05:50;;;;;;;2.65;1.33;;;10.60;75.40;;;;;;4978116;28;20041;-80
2022/02/11 16:08:16;;;;;;;2.75;1.02;;;10.60;75.40;;;;;;4998278;28;20034;-84
2022/02/11 16:10:41;;;;;;;2.45;1.30;;;10.60;75.40;;;;;;5008107;28;20385;-83
2022/02/11 16:13:07;;;;;;;3.85;1.25;;;10.60;75.30;;;;;;4992762;28;20032;-82
2022/02/11 16:15:33;;;;;;;2.22;1.13;;;10.70;75.30;;;;;;5010588;28;20034;-83
2022/02/11 16:18:03;;;;;;;2.58;1.23;;;10.60;75.20;;;;;;4997135;28;20058;-81
2022/02/11 16:20:43;;;;;;;3.58;1.48;;;10.60;75.10;;;;;;4992543;28;20079;-82
2022/02/11 16:23:12;;;;;;;3.67;1.25;;;10.70;75.10;;;;;;4999301;28;20022;-84
2022/02/11 16:25:38;;;;;;;2.67;1.27;;;10.60;74.90;;;;;;5010821;28;20018;-81
2022/02/11 16:28:06;;;;;;;2.92;1.83;;;10.60;74.90;;;;;;5001516;28;20049;-82
2022/02/11 16:30:33;;;;;;;2.75;1.25;;;10.60;74.80;;;;;;4993655;28;20041;-85
2022/02/11 16:33:00;;;;;;;2.38;1.38;;;10.70;74.80;;;;;;5004140;28;20026;-83
2022/02/11 16:35:25;;;;;;;3.78;1.80;;;10.60;74.70;;;;;;5003384;28;20018;-80
2022/02/11 16:37:51;;;;;;;4.30;1.27;;;10.60;74.60;;;;;;4990902;28;20080;-82
2022/02/11 16:40:17;;;;;;;3.60;1.42;;;10.70;74.60;;;;;;4994248;28;20490;-82
2022/02/11 16:42:45;;;;;;;3.60;1.63;;;10.60;74.60;;;;;;4985934;28;20030;-80
2022/02/11 16:45:11;;;;;;;3.60;1.70;;;10.60;74.60;;;;;;5018753;28;20028;-82
2022/02/11 16:47:38;;;;;;;4.22;1.55;;;10.60;74.60;;;;;;5008688;28;20030;-79
2022/02/11 16:50:06;;;;;;;2.15;1.20;;;10.60;74.60;;;;;;5007508;28;20029;-78
2022/02/11 16:52:33;;;;;;;2.38;1.40;;;10.60;74.60;;;;;;5022194;28;20025;-80
2022/02/11 16:55:00;;;;;;;2.42;1.40;;;10.60;74.60;;;;;;4995671;28;20041;-80
2022/02/11 16:57:26;;;;;;;2.88;1.38;;;10.60;74.60;;;;;;4996250;28;20382;-83